Time;durP1;ratioP1;P1;durP2;ratioP2;P2;SDS_P1;SDS_P2;PMS_P1;PMS_P2;Temp;Humidity;BMP_temperature;BMP_pressure;BME280_temperature;BME280_humidity;BME280_pressure;Samples;Min_cycle;Max_cycle;Signal;HPM_P1;HPM_P2
2021/11/27 12:03:39;;;;;;;26.43;20.73;;;4.00;98.30;;;;;;4276280;23;20456;-86
2021/11/27 12:09:24;;;;;;;24.73;20.40;;;3.90;98.30;;;;;;4047233;29;20518;-85
2021/11/27 12:15:33;;;;;;;29.98;20.88;;;3.80;98.30;;;;;;4043364;29;20428;-87
2021/11/27 12:35:38;;;;;;;26.63;20.95;;;3.50;98.30;;;;;;3934617;29;20217;-84
2021/11/27 12:38:35;;;;;;;31.05;21.10;;;3.60;98.30;;;;;;4009146;29;20286;-85
2021/11/27 13:38:51;;;;;;;22.77;18.50;;;3.00;98.30;;;;;;3930396;30;20467;-85
2021/11/27 13:40:57;;;;;;;22.38;18.13;;;3.00;98.30;;;;;;3943459;30;20226;-84
2021/11/27 14:02:14;;;;;;;20.57;17.70;;;3.10;98.30;;;;;;5202143;22;20458;-81
2021/11/27 14:05:05;;;;;;;24.10;19.10;;;3.20;98.30;;;;;;5209274;22;20437;-81
2021/11/27 14:42:07;;;;;;;23.13;18.27;;;2.60;98.30;;;;;;5092129;22;1592592;-81
2021/11/27 14:44:28;;;;;;;21.57;18.13;;;2.70;98.30;;;;;;5158754;22;20184;-81
2021/11/27 14:46:43;;;;;;;21.13;18.02;;;2.70;98.30;;;;;;5158819;22;20440;-81
2021/11/27 14:48:49;;;;;;;19.70;16.92;;;2.60;98.30;;;;;;5137185;23;20897;-81
2021/11/27 14:50:55;;;;;;;23.38;19.15;;;2.70;98.30;;;;;;5133938;23;20186;-82
2021/11/27 14:52:59;;;;;;;25.13;19.60;;;2.70;98.30;;;;;;5132627;23;20183;-81
2021/11/27 14:55:11;;;;;;;22.67;18.70;;;2.70;98.30;;;;;;5133136;23;20426;-81
2021/11/27 14:57:20;;;;;;;25.43;20.13;;;2.70;98.30;;;;;;5124998;23;20432;-81
2021/11/27 14:59:46;;;;;;;23.67;19.80;;;2.70;98.30;;;;;;5138403;23;20421;-82
2021/11/27 15:01:51;;;;;;;25.43;19.73;;;2.70;98.30;;;;;;5120480;23;20505;-81
2021/11/27 15:03:56;;;;;;;26.88;21.38;;;2.80;98.30;;;;;;5133737;23;20477;-81
2021/11/27 15:05:59;;;;;;;81.40;57.03;;;2.80;98.30;;;;;;5132761;23;20305;-81
2021/11/27 15:08:02;;;;;;;46.77;34.97;;;2.80;98.30;;;;;;5133214;23;20469;-82
2021/11/27 15:10:16;;;;;;;24.60;20.43;;;2.80;98.30;;;;;;5125466;23;20942;-82
2021/11/27 15:12:40;;;;;;;30.00;21.07;;;2.80;98.30;;;;;;5132436;23;20425;-82
2021/11/27 15:14:51;;;;;;;22.50;18.87;;;2.80;98.30;;;;;;5132768;23;20798;-82
2021/11/27 15:16:54;;;;;;;26.93;19.50;;;2.90;98.30;;;;;;5133402;23;20421;-81
2021/11/27 15:18:58;;;;;;;27.53;22.13;;;2.90;98.30;;;;;;5134611;23;20423;-85
2021/11/27 15:21:11;;;;;;;28.60;21.20;;;2.90;98.30;;;;;;5137175;23;20424;-82
2021/11/27 15:23:32;;;;;;;;;;;;;;;;;;;;;
2021/11/27 15:25:35;;;;;;;25.20;19.73;;;3.00;98.30;;;;;;5138251;23;20429;-81
2021/11/27 15:28:01;;;;;;;24.97;19.40;;;3.00;98.30;;;;;;5138570;23;20446;-81
2021/11/27 15:30:07;;;;;;;25.23;19.75;;;2.90;98.30;;;;;;5127676;23;20437;-81
2021/11/27 15:32:10;;;;;;;26.20;20.80;;;2.90;98.30;;;;;;5138068;23;20182;-81
2021/11/27 15:34:13;;;;;;;28.27;19.87;;;2.90;98.30;;;;;;5129532;23;20923;-81
2021/11/27 15:36:16;;;;;;;26.95;21.95;;;2.90;98.30;;;;;;5137048;23;20447;-80
2021/11/27 15:38:20;;;;;;;29.27;21.33;;;2.90;98.30;;;;;;5131661;23;20214;-81
2021/11/27 15:40:26;;;;;;;27.43;21.20;;;3.00;98.30;;;;;;5131584;23;20254;-81
2021/11/27 15:42:29;;;;;;;27.67;21.53;;;3.00;98.30;;;;;;5124658;23;20412;-80
2021/11/27 15:44:35;;;;;;;26.10;22.50;;;3.00;98.30;;;;;;5131699;23;20418;-80
2021/11/27 15:46:39;;;;;;;28.63;22.00;;;3.10;98.30;;;;;;5132702;23;20769;-80
2021/11/27 15:48:42;;;;;;;28.17;21.37;;;3.10;98.30;;;;;;5124858;23;20474;-80
2021/11/27 15:50:46;;;;;;;28.47;21.97;;;3.00;98.30;;;;;;5124189;23;20420;-80
2021/11/27 15:52:50;;;;;;;31.30;22.70;;;3.00;98.30;;;;;;5131818;23;20415;-80
2021/11/27 15:54:53;;;;;;;145.07;98.57;;;3.00;98.30;;;;;;5131370;23;20401;-80
2021/11/27 15:56:56;;;;;;;47.00;34.77;;;3.00;98.30;;;;;;5132120;23;20478;-81
2021/11/27 15:58:59;;;;;;;32.57;24.87;;;3.00;98.30;;;;;;5131802;23;20435;-80
2021/11/27 16:01:08;;;;;;;28.53;21.43;;;3.10;98.30;;;;;;5124205;23;20426;-80
2021/11/27 16:03:12;;;;;;;25.97;20.53;;;3.10;98.30;;;;;;5130821;23;20513;-80
2021/11/27 16:05:15;;;;;;;29.47;22.53;;;3.10;98.30;;;;;;5123524;23;20434;-80
2021/11/27 16:07:18;;;;;;;27.33;21.43;;;3.20;98.30;;;;;;5131651;23;20478;-80
2021/11/27 16:09:21;;;;;;;27.43;22.23;;;3.20;98.30;;;;;;5124291;23;20916;-80
2021/11/27 16:11:24;;;;;;;32.20;23.00;;;3.20;98.30;;;;;;5132323;23;20903;-80
2021/11/27 16:13:27;;;;;;;26.87;21.40;;;3.20;98.30;;;;;;5123695;23;20461;-80
2021/11/27 16:15:30;;;;;;;27.67;20.43;;;3.20;98.30;;;;;;5123672;23;20505;-81
2021/11/27 16:17:35;;;;;;;28.80;22.40;;;3.30;98.30;;;;;;5131949;23;20449;-81
2021/11/27 16:19:38;;;;;;;26.83;21.20;;;3.30;98.30;;;;;;5131416;23;20465;-81
2021/11/27 16:21:41;;;;;;;30.40;21.30;;;3.30;98.30;;;;;;5121815;23;20458;-80
2021/11/27 16:23:46;;;;;;;30.00;22.90;;;3.40;98.30;;;;;;5129456;23;20446;-81
2021/11/27 16:25:49;;;;;;;30.37;23.07;;;3.40;98.30;;;;;;5129819;23;20418;-81
2021/11/27 16:27:53;;;;;;;34.93;26.80;;;3.50;98.30;;;;;;5131106;23;20424;-81
2021/11/27 16:29:58;;;;;;;141.57;97.27;;;3.50;98.30;;;;;;5131242;23;20430;-81
2021/11/27 16:32:14;;;;;;;114.33;76.50;;;3.50;98.30;;;;;;5131263;23;20393;-81
2021/11/27 16:34:18;;;;;;;49.47;34.30;;;3.50;98.30;;;;;;5131757;23;20420;-80
2021/11/27 16:36:22;;;;;;;45.83;32.20;;;3.70;98.30;;;;;;5131843;23;20497;-80
2021/11/27 16:38:25;;;;;;;38.80;28.30;;;3.90;98.30;;;;;;5131537;23;21037;-81
2021/11/27 16:40:29;;;;;;;36.67;26.60;;;4.00;98.30;;;;;;5132505;23;20435;-80
2021/11/27 16:42:32;;;;;;;37.27;28.73;;;4.00;98.30;;;;;;5130641;23;20424;-80
2021/11/27 16:44:36;;;;;;;36.37;27.30;;;3.90;98.30;;;;;;5121830;23;20899;-80
2021/11/27 16:46:39;;;;;;;35.03;26.47;;;3.80;98.30;;;;;;5130377;23;20525;-80
2021/11/27 16:48:44;;;;;;;33.87;26.40;;;3.80;98.30;;;;;;5123870;23;20956;-80
2021/11/27 16:50:48;;;;;;;33.70;26.07;;;3.70;98.30;;;;;;5132423;23;20427;-81
2021/11/27 16:52:51;;;;;;;32.60;24.17;;;3.70;98.30;;;;;;5123661;23;20430;-81
2021/11/27 16:54:55;;;;;;;32.13;24.53;;;3.60;98.30;;;;;;5131731;23;20401;-81
2021/11/27 16:56:58;;;;;;;28.30;22.20;;;3.70;98.30;;;;;;5123945;23;20439;-81
2021/11/27 16:59:06;;;;;;;32.30;24.43;;;3.70;98.30;;;;;;5123958;23;20450;-81
2021/11/27 17:01:10;;;;;;;29.33;22.90;;;3.70;98.30;;;;;;5123743;23;20433;-81
2021/11/27 17:03:13;;;;;;;29.70;22.60;;;3.70;98.30;;;;;;5123712;23;20434;-81
2021/11/27 17:05:18;;;;;;;33.03;24.77;;;3.70;98.30;;;;;;5133181;23;20423;-81
2021/11/27 17:07:22;;;;;;;33.63;24.83;;;3.70;98.30;;;;;;5136533;23;20448;-82
2021/11/27 17:09:26;;;;;;;38.87;27.37;;;3.70;98.30;;;;;;5139664;23;20461;-81
2021/11/27 17:11:29;;;;;;;36.70;26.40;;;3.70;98.30;;;;;;5131755;23;20409;-83
2021/11/27 17:13:32;;;;;;;34.67;24.93;;;3.60;98.30;;;;;;5138481;23;20430;-82
2021/11/27 17:15:37;;;;;;;34.97;25.27;;;3.70;98.30;;;;;;5135114;23;20392;-81
2021/11/27 17:17:41;;;;;;;32.90;24.77;;;3.70;98.30;;;;;;5123613;23;20483;-79
2021/11/27 17:19:47;;;;;;;29.13;23.27;;;3.70;98.30;;;;;;5129520;23;20418;-79
2021/11/27 17:21:53;;;;;;;35.03;24.93;;;3.60;98.30;;;;;;5129973;23;20421;-78
2021/11/27 17:23:57;;;;;;;171.13;106.03;;;3.60;98.30;;;;;;5121110;23;20729;-79
2021/11/27 17:26:01;;;;;;;181.37;120.97;;;3.70;98.30;;;;;;5131982;23;20422;-79
2021/11/27 17:28:08;;;;;;;122.40;76.13;;;3.70;98.30;;;;;;5124062;23;20844;-79
2021/11/27 17:30:16;;;;;;;56.03;40.37;;;3.70;98.30;;;;;;5127648;23;20409;-79
2021/11/27 17:32:19;;;;;;;48.37;34.43;;;3.70;98.30;;;;;;5126950;23;20900;-79
2021/11/27 17:34:22;;;;;;;40.63;28.13;;;3.70;98.30;;;;;;5125277;23;20427;-79
2021/11/27 17:36:25;;;;;;;36.53;26.40;;;3.70;98.30;;;;;;5125121;23;20439;-79
2021/11/27 17:38:28;;;;;;;35.07;27.70;;;3.70;98.30;;;;;;5125105;23;20481;-80
2021/11/27 17:40:32;;;;;;;35.70;27.90;;;3.70;98.30;;;;;;5123160;23;20417;-79
2021/11/27 17:42:35;;;;;;;34.43;26.63;;;3.70;98.30;;;;;;5130919;23;20650;-81
2021/11/27 17:44:39;;;;;;;35.80;26.27;;;3.70;98.30;;;;;;5124232;23;20490;-81
2021/11/27 17:46:43;;;;;;;37.80;27.57;;;3.70;98.30;;;;;;5131135;23;20422;-80
2021/11/27 17:48:47;;;;;;;39.20;30.70;;;3.70;98.30;;;;;;5131054;23;20473;-81
2021/11/27 17:50:50;;;;;;;37.50;27.33;;;3.70;98.30;;;;;;5123047;23;20440;-81
2021/11/27 17:52:53;;;;;;;39.33;29.37;;;3.70;98.30;;;;;;5121499;23;20404;-81
2021/11/27 17:54:56;;;;;;;37.67;27.70;;;3.70;98.30;;;;;;5122735;23;20405;-81
2021/11/27 17:57:01;;;;;;;36.97;29.33;;;3.70;98.30;;;;;;5131103;23;20479;-81
2021/11/27 17:59:05;;;;;;;36.87;31.50;;;3.70;98.30;;;;;;5123488;23;20516;-81
2021/11/27 18:01:08;;;;;;;34.33;28.67;;;3.70;98.30;;;;;;5123194;23;20961;-81
2021/11/27 18:03:13;;;;;;;31.50;26.20;;;3.70;98.30;;;;;;5130585;23;20389;-81
2021/11/27 18:05:17;;;;;;;31.30;24.20;;;3.70;98.30;;;;;;5130568;23;21045;-81
2021/11/27 18:07:23;;;;;;;31.53;24.37;;;3.70;98.30;;;;;;5129169;23;20440;-82
2021/11/27 18:09:26;;;;;;;36.00;27.03;;;3.70;98.30;;;;;;5121859;23;20473;-81
2021/11/27 18:11:29;;;;;;;50.13;38.67;;;3.80;98.30;;;;;;5130989;23;20433;-81
2021/11/27 18:13:33;;;;;;;47.47;39.13;;;3.80;98.30;;;;;;5121548;23;20409;-82
2021/11/27 18:15:36;;;;;;;44.63;36.17;;;4.00;98.30;;;;;;5130391;23;20438;-81
2021/11/27 18:17:43;;;;;;;42.43;33.03;;;4.10;98.30;;;;;;5131646;23;20433;-81
2021/11/27 18:19:47;;;;;;;39.73;33.13;;;4.10;98.30;;;;;;5122466;23;20425;-81
2021/11/27 18:21:50;;;;;;;120.73;81.63;;;4.00;98.30;;;;;;5130184;23;20405;-81
2021/11/27 18:23:56;;;;;;;349.30;237.57;;;4.00;98.30;;;;;;5129797;23;20453;-81
2021/11/27 18:26:13;;;;;;;118.37;79.67;;;4.00;98.30;;;;;;5121946;23;20418;-80
2021/11/27 18:28:19;;;;;;;78.60;52.30;;;3.90;98.30;;;;;;5129733;23;20819;-80
2021/11/27 18:30:24;;;;;;;53.57;39.00;;;3.90;98.30;;;;;;5120496;23;20409;-80
2021/11/27 18:32:27;;;;;;;42.30;31.17;;;3.90;98.30;;;;;;5121455;23;20435;-80
2021/11/27 18:34:31;;;;;;;40.93;31.00;;;3.90;98.30;;;;;;5120555;23;20728;-80
2021/11/27 18:36:34;;;;;;;38.83;30.10;;;3.90;98.30;;;;;;5120798;23;20416;-80
2021/11/27 18:38:42;;;;;;;35.07;28.30;;;3.90;98.30;;;;;;5121080;23;20421;-80
2021/11/27 18:40:45;;;;;;;35.00;28.80;;;3.90;98.30;;;;;;5128969;23;20769;-81
2021/11/27 18:42:48;;;;;;;35.50;26.17;;;3.90;98.30;;;;;;5120813;23;20885;-80
2021/11/27 18:44:51;;;;;;;32.23;26.47;;;3.90;98.30;;;;;;5130206;23;20799;-80
2021/11/27 18:46:55;;;;;;;34.47;27.27;;;3.90;98.30;;;;;;5129036;23;20861;-80
2021/11/27 18:48:58;;;;;;;35.23;26.50;;;3.90;98.30;;;;;;5121961;23;20993;-80
2021/11/27 18:51:01;;;;;;;32.80;26.67;;;3.90;98.30;;;;;;5130129;23;20508;-81
2021/11/27 18:53:09;;;;;;;41.20;31.10;;;3.90;98.30;;;;;;5120893;23;20389;-80
2021/11/27 18:55:12;;;;;;;88.47;56.70;;;4.10;98.30;;;;;;5121481;23;20432;-81
2021/11/27 18:57:17;;;;;;;56.90;41.20;;;4.40;98.30;;;;;;5120085;23;20495;-80
2021/11/27 18:59:25;;;;;;;42.57;32.07;;;4.60;98.30;;;;;;5128168;23;20432;-79
2021/11/27 19:01:30;;;;;;;37.63;27.80;;;4.50;98.30;;;;;;5129316;23;20424;-79
2021/11/27 19:03:37;;;;;;;37.40;28.80;;;4.30;98.30;;;;;;5127449;23;20395;-80
2021/11/27 19:05:40;;;;;;;33.00;28.23;;;4.20;98.30;;;;;;5120916;23;20434;-80
2021/11/27 19:07:48;;;;;;;35.23;28.60;;;4.10;98.30;;;;;;5127789;23;20970;-81
2021/11/27 19:09:52;;;;;;;36.83;29.67;;;4.10;98.30;;;;;;5119458;23;20441;-72
2021/11/27 19:11:56;;;;;;;35.33;27.47;;;4.10;98.30;;;;;;5115291;23;20484;-72
2021/11/27 19:14:01;;;;;;;34.00;27.77;;;4.30;98.30;;;;;;5116208;23;20409;-75
2021/11/27 19:16:10;;;;;;;34.33;27.20;;;4.50;98.30;;;;;;5116702;23;21080;-73
2021/11/27 19:18:13;;;;;;;38.70;30.47;;;4.50;98.30;;;;;;5116833;23;20445;-73
2021/11/27 19:20:20;;;;;;;39.17;30.97;;;4.50;98.30;;;;;;5116667;23;20432;-73
2021/11/27 19:22:23;;;;;;;42.37;31.17;;;4.60;98.30;;;;;;5116754;23;20461;-73
2021/11/27 19:24:28;;;;;;;39.23;30.07;;;4.60;98.30;;;;;;5124305;23;20790;-72
2021/11/27 19:26:41;;;;;;;40.40;29.73;;;4.60;98.30;;;;;;5117532;23;20404;-83
2021/11/27 19:28:49;;;;;;;40.07;29.50;;;4.60;98.30;;;;;;5133721;23;20420;-82
2021/11/27 19:30:59;;;;;;;35.37;28.67;;;4.50;98.30;;;;;;5125345;23;20907;-81
2021/11/27 19:33:11;;;;;;;39.33;29.40;;;4.30;98.30;;;;;;5133024;23;20433;-80
2021/11/27 19:35:18;;;;;;;37.93;29.10;;;4.30;98.30;;;;;;5125824;23;20404;-80
2021/11/27 19:37:28;;;;;;;32.53;26.77;;;4.30;98.30;;;;;;5133041;23;20468;-80
2021/11/27 19:39:31;;;;;;;34.73;27.53;;;4.20;98.30;;;;;;5133696;23;20403;-80
2021/11/27 19:41:36;;;;;;;35.93;27.33;;;4.20;98.30;;;;;;5132792;23;20409;-80
2021/11/27 19:43:39;;;;;;;41.70;32.33;;;4.20;98.30;;;;;;5133021;23;20422;-81
2021/11/27 19:45:43;;;;;;;53.57;40.97;;;4.20;98.30;;;;;;5133070;23;20428;-80
2021/11/27 19:47:46;;;;;;;54.47;40.80;;;4.20;98.30;;;;;;5132155;23;20425;-81
2021/11/27 19:49:51;;;;;;;44.50;33.70;;;4.20;98.30;;;;;;5125112;23;20435;-80
2021/11/27 19:51:56;;;;;;;39.00;29.97;;;4.20;98.30;;;;;;5134053;23;20479;-81
2021/11/27 19:53:59;;;;;;;36.30;29.27;;;4.10;98.30;;;;;;5124855;23;20434;-80
2021/11/27 19:56:02;;;;;;;37.73;28.63;;;4.10;98.30;;;;;;5133428;23;20405;-80
2021/11/27 19:58:06;;;;;;;38.70;29.83;;;4.10;98.30;;;;;;5124779;23;20428;-80
2021/11/27 20:00:11;;;;;;;37.10;29.17;;;4.20;98.30;;;;;;5133466;23;20879;-80
2021/11/27 20:02:17;;;;;;;58.00;40.17;;;4.20;98.30;;;;;;5125111;23;20430;-80
2021/11/27 20:04:22;;;;;;;63.40;42.80;;;4.20;98.30;;;;;;5125196;23;20408;-80
2021/11/27 20:06:26;;;;;;;48.60;36.80;;;4.20;98.30;;;;;;5134696;23;20408;-80
2021/11/27 20:08:31;;;;;;;44.17;34.30;;;4.20;98.30;;;;;;5133587;23;20446;-80
2021/11/27 20:10:38;;;;;;;39.37;30.03;;;4.20;98.30;;;;;;5124871;23;20487;-80
2021/11/27 20:12:41;;;;;;;42.20;32.37;;;4.10;98.30;;;;;;5125141;23;20408;-80
2021/11/27 20:14:44;;;;;;;38.43;31.40;;;4.20;98.30;;;;;;5125890;23;20401;-80
2021/11/27 20:16:47;;;;;;;41.07;32.13;;;4.20;98.30;;;;;;5125633;23;20409;-80
2021/11/27 20:18:51;;;;;;;40.50;31.33;;;4.20;98.30;;;;;;5124996;23;20481;-80
2021/11/27 20:20:54;;;;;;;32.67;28.67;;;4.20;98.30;;;;;;5133018;23;20461;-80
2021/11/27 20:22:57;;;;;;;28.97;23.80;;;4.20;98.30;;;;;;5124564;23;20454;-80
2021/11/27 20:25:03;;;;;;;29.47;23.90;;;4.20;98.30;;;;;;5123944;23;20750;-80
2021/11/27 20:27:08;;;;;;;31.50;24.47;;;4.20;98.30;;;;;;5124364;23;20435;-80
2021/11/27 20:29:13;;;;;;;32.13;25.70;;;4.20;98.30;;;;;;5124068;23;20425;-80
2021/11/27 20:31:20;;;;;;;33.50;25.87;;;4.10;98.30;;;;;;5132586;23;20501;-81
2021/11/27 20:33:23;;;;;;;31.43;24.73;;;4.10;98.30;;;;;;5119679;23;20735;-82
2021/11/27 20:35:26;;;;;;;30.30;25.17;;;4.10;98.30;;;;;;5124058;23;20405;-81
2021/11/27 20:37:29;;;;;;;48.00;35.17;;;4.10;98.30;;;;;;5118098;23;20409;-82
2021/11/27 20:39:32;;;;;;;48.30;35.63;;;4.10;98.30;;;;;;5119257;23;20405;-82
2021/11/27 20:41:37;;;;;;;92.30;57.73;;;4.10;98.30;;;;;;5128334;23;20464;-82
2021/11/27 20:43:40;;;;;;;25.20;19.80;;;4.10;98.30;;;;;;5125702;23;20886;-82
2021/11/27 20:45:50;;;;;;;21.80;18.53;;;4.10;98.30;;;;;;5126459;23;20430;-81
2021/11/27 20:47:53;;;;;;;22.80;18.87;;;3.90;98.30;;;;;;5125406;23;20515;-81
2021/11/27 20:49:56;;;;;;;33.50;25.10;;;3.80;98.30;;;;;;5125005;23;20466;-80
2021/11/27 20:51:59;;;;;;;22.20;18.40;;;3.80;98.30;;;;;;5118480;23;20480;-80
2021/11/27 20:54:03;;;;;;;28.40;21.40;;;3.80;98.30;;;;;;5126505;23;20400;-81
2021/11/27 20:56:07;;;;;;;19.60;15.40;;;3.70;98.30;;;;;;5118223;23;20754;-81
2021/11/27 20:58:12;;;;;;;24.50;19.20;;;3.70;98.30;;;;;;5118044;23;20450;-80
2021/11/27 21:00:15;;;;;;;17.27;14.17;;;3.70;98.30;;;;;;5125939;23;20472;-80
2021/11/27 21:02:18;;;;;;;16.77;14.20;;;3.70;98.30;;;;;;5125722;23;20430;-81
2021/11/27 21:04:22;;;;;;;14.67;13.17;;;3.70;98.30;;;;;;5125209;23;20426;-81
2021/11/27 21:06:25;;;;;;;13.20;11.80;;;3.60;98.30;;;;;;5117601;23;20506;-81
2021/11/27 21:08:28;;;;;;;14.33;12.90;;;3.50;98.30;;;;;;5117422;23;20913;-81
2021/11/27 21:10:31;;;;;;;15.97;14.27;;;3.50;98.30;;;;;;5117304;23;20416;-81
2021/11/27 21:12:34;;;;;;;31.43;25.50;;;3.50;98.30;;;;;;5125817;23;20432;-80
2021/11/27 21:14:39;;;;;;;29.77;24.80;;;3.50;98.30;;;;;;5118003;23;20461;-80
2021/11/27 21:16:43;;;;;;;25.53;20.40;;;3.60;98.30;;;;;;5117663;23;20423;-81
2021/11/27 21:18:47;;;;;;;27.23;20.27;;;3.60;98.30;;;;;;5125805;23;20746;-81
2021/11/27 21:20:51;;;;;;;22.80;19.00;;;3.60;98.30;;;;;;5117473;23;20425;-81
2021/11/27 21:22:54;;;;;;;23.07;19.53;;;3.60;98.30;;;;;;5117043;23;20430;-81
2021/11/27 21:24:57;;;;;;;26.60;21.80;;;3.50;98.30;;;;;;5117364;23;20426;-81
2021/11/27 21:27:00;;;;;;;20.07;16.60;;;3.60;98.30;;;;;;5124834;23;20396;-81
2021/11/27 21:29:04;;;;;;;24.80;20.13;;;3.60;98.30;;;;;;5117081;23;20537;-81
2021/11/27 21:31:08;;;;;;;23.10;18.20;;;3.50;98.30;;;;;;5117990;23;20910;-80
2021/11/27 21:33:12;;;;;;;22.80;19.23;;;3.60;98.30;;;;;;5117709;23;20477;-81
2021/11/27 21:35:17;;;;;;;20.33;16.83;;;3.60;98.30;;;;;;5118210;23;20521;-80
2021/11/27 21:37:20;;;;;;;17.33;15.43;;;3.70;98.30;;;;;;5117781;23;20451;-80
2021/11/27 21:39:23;;;;;;;18.77;15.53;;;3.70;98.30;;;;;;5126274;23;21018;-81
2021/11/27 21:41:26;;;;;;;20.93;16.80;;;3.70;98.30;;;;;;5125859;23;20443;-80
2021/11/27 21:43:29;;;;;;;23.17;19.60;;;3.70;98.30;;;;;;5125783;23;20435;-80
2021/11/27 21:45:32;;;;;;;18.70;15.63;;;3.70;98.30;;;;;;5127529;23;20421;-80
2021/11/27 21:47:37;;;;;;;14.80;13.30;;;3.70;98.30;;;;;;5117435;23;20488;-81
2021/11/27 21:49:40;;;;;;;16.50;14.40;;;3.50;98.30;;;;;;5117150;23;20913;-80
2021/11/27 21:51:45;;;;;;;18.13;14.97;;;3.50;98.30;;;;;;5116981;23;20464;-80
2021/11/27 21:53:48;;;;;;;15.13;13.30;;;3.40;98.30;;;;;;5116754;23;20409;-80
2021/11/27 21:55:51;;;;;;;17.10;13.27;;;3.30;98.30;;;;;;5117532;23;20401;-80
2021/11/27 21:57:54;;;;;;;14.67;13.10;;;3.20;98.30;;;;;;5126113;23;20446;-80
2021/11/27 21:59:57;;;;;;;15.40;13.47;;;3.20;98.30;;;;;;5125596;23;20527;-80
2021/11/27 22:02:00;;;;;;;15.33;13.30;;;3.10;98.30;;;;;;5118402;23;20412;-81
2021/11/27 22:04:05;;;;;;;14.70;13.10;;;3.00;98.30;;;;;;5117438;23;20430;-81
2021/11/27 22:06:09;;;;;;;17.80;15.07;;;3.00;98.30;;;;;;5126615;23;20544;-81
2021/11/27 22:08:12;;;;;;;19.23;14.57;;;3.10;98.30;;;;;;5118012;23;20199;-82
2021/11/27 22:10:15;;;;;;;16.55;14.68;;;3.10;98.30;;;;;;5118545;23;20446;-82
2021/11/27 22:12:19;;;;;;;15.70;14.00;;;3.20;98.30;;;;;;5118367;23;20579;-81
2021/11/27 22:14:22;;;;;;;17.98;14.98;;;3.30;98.30;;;;;;5125766;23;20426;-81
2021/11/27 22:16:25;;;;;;;17.30;14.40;;;3.20;98.30;;;;;;5119078;23;20482;-81
2021/11/27 22:18:28;;;;;;;16.03;13.60;;;3.10;98.30;;;;;;5117698;23;20784;-81
2021/11/27 22:20:34;;;;;;;16.17;14.17;;;3.10;98.30;;;;;;5117540;23;20465;-81
2021/11/27 22:22:38;;;;;;;16.50;14.77;;;3.10;98.30;;;;;;5126266;23;20393;-81
2021/11/27 22:24:41;;;;;;;16.43;14.67;;;3.10;98.30;;;;;;5119010;23;20521;-80
2021/11/27 22:26:44;;;;;;;19.50;16.53;;;3.10;98.30;;;;;;5118025;23;20502;-81
2021/11/27 22:28:47;;;;;;;18.87;15.97;;;3.10;98.30;;;;;;5117547;23;20472;-81
2021/11/27 22:30:50;;;;;;;18.75;15.82;;;3.10;98.30;;;;;;5126040;23;21210;-81
2021/11/27 22:32:53;;;;;;;19.87;16.23;;;3.10;98.30;;;;;;5125846;23;20254;-81
2021/11/27 22:34:56;;;;;;;20.67;16.55;;;3.10;98.30;;;;;;5117569;23;20513;-81
2021/11/27 22:37:01;;;;;;;17.37;15.57;;;3.20;98.30;;;;;;5126326;23;20183;-81
2021/11/27 22:39:04;;;;;;;19.50;16.50;;;3.20;98.30;;;;;;5117202;23;20460;-81
2021/11/27 22:41:10;;;;;;;17.40;15.60;;;3.30;98.30;;;;;;5125342;23;20521;-80
2021/11/27 22:43:13;;;;;;;18.33;16.20;;;3.30;98.30;;;;;;5125033;23;20958;-80
2021/11/27 22:45:16;;;;;;;18.30;15.57;;;3.20;98.30;;;;;;5117674;23;20936;-80
2021/11/27 22:47:19;;;;;;;17.27;15.20;;;3.20;98.30;;;;;;5119935;23;20524;-81
2021/11/27 22:49:22;;;;;;;19.40;15.60;;;3.30;98.30;;;;;;5133066;23;20425;-81
2021/11/27 22:51:26;;;;;;;19.10;16.70;;;3.30;98.30;;;;;;5127644;23;20446;-82
2021/11/27 22:53:30;;;;;;;21.50;16.10;;;3.30;98.30;;;;;;5127873;23;20422;-81
2021/11/27 22:55:33;;;;;;;19.47;17.37;;;3.30;98.30;;;;;;5127179;23;20780;-82
2021/11/27 22:57:36;;;;;;;19.00;16.47;;;3.30;98.30;;;;;;5118625;23;20450;-81
2021/11/27 22:59:39;;;;;;;19.83;17.00;;;3.30;98.30;;;;;;5119096;23;21221;-82
2021/11/27 23:01:47;;;;;;;19.37;17.33;;;3.30;98.30;;;;;;5118570;23;20430;-81
2021/11/27 23:03:51;;;;;;;20.83;17.60;;;3.40;98.30;;;;;;5126705;23;20423;-81
2021/11/27 23:05:54;;;;;;;19.33;16.70;;;3.40;98.30;;;;;;5119156;23;20512;-81
2021/11/27 23:07:57;;;;;;;19.40;17.10;;;3.40;98.30;;;;;;5126763;23;20516;-81
2021/11/27 23:10:02;;;;;;;21.70;18.60;;;3.50;98.30;;;;;;5119406;23;20426;-81
2021/11/27 23:12:06;;;;;;;25.93;20.20;;;3.50;98.30;;;;;;5127343;23;20832;-82
2021/11/27 23:14:10;;;;;;;20.67;17.87;;;3.50;98.30;;;;;;5118627;23;20404;-82
2021/11/27 23:16:14;;;;;;;22.57;17.80;;;3.50;98.30;;;;;;5127472;23;20673;-81
2021/11/27 23:18:17;;;;;;;23.40;17.60;;;3.50;98.30;;;;;;5119084;23;20442;-81
2021/11/27 23:20:22;;;;;;;20.83;17.30;;;3.50;98.30;;;;;;5128091;23;20476;-81
2021/11/27 23:22:25;;;;;;;20.87;18.10;;;3.40;98.30;;;;;;5119469;23;20465;-81
2021/11/27 23:24:28;;;;;;;23.10;19.40;;;3.30;98.30;;;;;;5127808;23;20426;-82
2021/11/27 23:26:33;;;;;;;25.13;20.40;;;3.20;98.30;;;;;;5129518;23;20403;-81
2021/11/27 23:28:36;;;;;;;23.93;19.13;;;3.30;98.30;;;;;;5119481;23;20442;-82
2021/11/27 23:30:39;;;;;;;30.23;24.87;;;3.20;98.30;;;;;;5118958;23;20458;-82
2021/11/27 23:32:43;;;;;;;29.23;24.63;;;3.20;98.30;;;;;;5128113;23;20418;-81
2021/11/27 23:34:46;;;;;;;28.37;23.23;;;3.20;98.30;;;;;;5120557;23;20436;-82
2021/11/27 23:36:49;;;;;;;27.50;24.20;;;3.10;98.30;;;;;;5127897;23;20428;-82
2021/11/27 23:38:52;;;;;;;31.10;22.47;;;3.10;98.30;;;;;;5118608;23;20460;-82
2021/11/27 23:40:55;;;;;;;33.33;24.58;;;3.00;98.30;;;;;;5119334;23;20441;-81
2021/11/27 23:43:01;;;;;;;29.77;22.48;;;3.00;98.30;;;;;;5118079;23;20183;-82
2021/11/27 23:45:05;;;;;;;27.97;21.33;;;2.90;98.30;;;;;;5127075;23;20164;-82
2021/11/27 23:47:09;;;;;;;35.33;24.17;;;2.90;98.30;;;;;;5127931;23;20441;-82
2021/11/27 23:49:14;;;;;;;30.58;22.88;;;2.90;98.30;;;;;;5128534;23;20509;-83
2021/11/27 23:51:18;;;;;;;29.80;22.45;;;2.80;98.30;;;;;;5127553;23;20198;-82
2021/11/27 23:53:22;;;;;;;29.27;21.90;;;2.80;98.30;;;;;;5141459;23;20172;-81
2021/11/27 23:55:29;;;;;;;28.60;22.23;;;2.80;98.30;;;;;;5128163;23;20513;-81
2021/11/27 23:57:32;;;;;;;27.50;21.67;;;2.80;98.30;;;;;;5136549;23;20187;-82
2021/11/27 23:59:43;;;;;;;61.33;43.30;;;2.90;98.30;;;;;;5126309;23;20430;-82
